PWSweather.com
Personal Weather Stations
Station Observations
WISCHPK61
Green Bay Schmitt Park, Green Bay, WI 54311

Green Bay Schmitt ParkGreen Bay, WI 54311

Lat: 44.514277, Lon: -87.935067

Elevation: 735

Station Type: Acu Rite Pro Weather Center model 02032C

http://greenbayweathercam.com

High Low Average
Temperature 45.0°F7.2°C 34.2°F1.2°C 38.0°F3.3°C
Dew Point 44.7°F7.1°C 30.8°F-0.7°C 37.3°F2.9°C
Winds 4.6 mph 7.4 kmh Calm Calm 1.0 mph SSE1.6 kmh SSE
Wind Gusts 6.9 mph11.1 kmh -- 1.0 mph1.6 kmh
Humidity 99% 87% 98%
Pressure 29.23 in989.8 mb 28.93 in979.7 mb -
Precipitation 0.17 in4.3 mm - -
Hour Temp Dew Point Humidity Winds Wind Gusts Pressure Precip Precip Rate Daily Precip Total
12:00 AM 34.7°F1.5°C 31.5°F-0.3°C 88% 1.2 mph SE1.9 kmh SE 3.5 mph5.6 kmh 29.26 in990.9 mb - 0.14 in3.6 mm 0.14 in3.6 mm
01:00 AM 35.1°F1.7°C 34.8°F1.6°C 99% 3.5 mph SSE5.6 kmh SSE 4.6 mph7.4 kmh 29.23 in989.8 mb - 0.11 in2.8 mm 0.11 in2.8 mm
02:00 AM 34.9°F1.6°C 34.6°F1.4°C 99% 1.2 mph SE1.9 kmh SE 2.3 mph3.7 kmh 29.19 in988.5 mb - 0.03 in0.8 mm 0.14 in3.6 mm
03:00 AM 34.3°F1.3°C 32.8°F0.4°C 94% 1.2 mph SE1.9 kmh SE 1.2 mph1.9 kmh 29.18 in988.1 mb - 0.00 in0.0 mm 0.14 in3.6 mm
04:00 AM 34.2°F1.2°C 33.9°F1.1°C 99% 1.2 mph SE1.9 kmh SE -- 29.16 in987.5 mb - 0.00 in0.0 mm 0.14 in3.6 mm
05:00 AM 34.3°F1.3°C 30.8°F-0.7°C 87% Calm Calm -- 29.14 in986.8 mb - 0.00 in0.0 mm 0.14 in3.6 mm
06:00 AM 34.5°F1.4°C 34.2°F1.2°C 99% Calm Calm -- 29.12 in986.1 mb - 0.00 in0.0 mm 0.14 in3.6 mm
07:00 AM 34.7°F1.5°C 34.4°F1.3°C 99% Calm Calm -- 29.13 in986.5 mb - 0.00 in0.0 mm 0.14 in3.6 mm
08:00 AM 34.7°F1.5°C 33.9°F1.1°C 97% Calm Calm -- 29.14 in986.8 mb - 0.00 in0.0 mm 0.14 in3.6 mm
09:00 AM 35.8°F2.1°C 35.3°F1.8°C 98% Calm Calm -- 29.14 in986.8 mb - 0.00 in0.0 mm 0.14 in3.6 mm
10:00 AM 38.3°F3.5°C 38.0°F3.3°C 99% Calm Calm -- 29.12 in986.1 mb - 0.00 in0.0 mm 0.14 in3.6 mm
11:00 AM 40.0°F4.4°C 39.7°F4.3°C 99% Calm Calm -- 29.13 in986.5 mb - 0.00 in0.0 mm 0.14 in3.6 mm
12:00 PM 43.3°F6.3°C 43.1°F6.2°C 99% Calm Calm -- 29.12 in986.1 mb - 0.00 in0.0 mm 0.14 in3.6 mm
01:00 PM 45.0°F7.2°C 44.7°F7.1°C 99% Calm Calm -- 29.12 in986.1 mb - 0.00 in0.0 mm 0.14 in3.6 mm
02:00 PM 44.8°F7.1°C 44.5°F6.9°C 99% Calm Calm -- 29.11 in985.8 mb - 0.00 in0.0 mm 0.14 in3.6 mm
03:00 PM 41.7°F5.4°C 41.4°F5.2°C 99% Calm Calm -- 29.09 in985.1 mb - 0.00 in0.0 mm 0.14 in3.6 mm
04:00 PM 39.9°F4.4°C 39.4°F4.1°C 98% Calm Calm -- 29.07 in984.4 mb - 0.00 in0.0 mm 0.14 in3.6 mm
05:00 PM 37.6°F3.1°C 36.0°F2.2°C 94% Calm Calm -- 29.06 in984.1 mb - 0.00 in0.0 mm 0.14 in3.6 mm
06:00 PM 37.4°F3.0°C 37.1°F2.8°C 99% Calm Calm -- 29.03 in983.1 mb - 0.00 in0.0 mm 0.14 in3.6 mm
07:00 PM 37.8°F3.2°C 37.5°F3.1°C 99% 1.2 mph SE1.9 kmh SE 3.5 mph5.6 kmh 29.03 in983.1 mb - 0.00 in0.0 mm 0.14 in3.6 mm
08:00 PM 38.3°F3.5°C 38.0°F3.3°C 99% Calm Calm -- 29.04 in983.4 mb - 0.00 in0.0 mm 0.14 in3.6 mm
09:00 PM 38.3°F3.5°C 37.0°F2.8°C 95% 3.5 mph SE5.6 kmh SE 3.5 mph5.6 kmh 29.00 in982.1 mb - 0.00 in0.0 mm 0.14 in3.6 mm
10:00 PM 38.8°F3.8°C 36.9°F2.7°C 93% 4.6 mph S7.4 kmh S 4.6 mph7.4 kmh 28.98 in981.4 mb - 0.00 in0.0 mm 0.14 in3.6 mm
11:00 PM 39.2°F4.0°C 38.9°F3.8°C 99% 4.6 mph SE7.4 kmh SE 6.9 mph11.1 kmh 28.95 in980.4 mb - 0.03 in0.8 mm 0.17 in4.3 mm